createdAt,value
2022-09-07T00:00:36.384Z,20.55
2022-09-07T00:01:38.217Z,20.57
2022-09-07T00:02:39.862Z,20.56
2022-09-07T00:03:41.891Z,20.49
2022-09-07T00:04:43.903Z,20.57
2022-09-07T00:05:48.112Z,20.55
2022-09-07T00:06:50.026Z,20.43
2022-09-07T00:07:52.114Z,20.53
2022-09-07T00:08:53.777Z,20.50
2022-09-07T00:09:55.793Z,20.51
2022-09-07T00:11:00.785Z,20.54
2022-09-07T00:12:03.120Z,20.19
2022-09-07T00:13:06.195Z,20.34
2022-09-07T00:14:09.517Z,20.47
2022-09-07T00:15:12.877Z,20.45
2022-09-07T00:16:20.817Z,20.44
2022-09-07T00:17:22.834Z,20.31
2022-09-07T00:18:25.345Z,20.34
2022-09-07T00:19:27.390Z,20.25
2022-09-07T00:20:29.115Z,20.22
2022-09-07T00:21:32.489Z,20.14
2022-09-07T00:22:34.752Z,20.19
2022-09-07T00:23:38.208Z,19.98
2022-09-07T00:24:41.188Z,20.07
2022-09-07T00:25:42.894Z,20.00
2022-09-07T00:26:44.486Z,19.91
2022-09-07T00:27:46.090Z,19.93
2022-09-07T00:28:50.277Z,19.81
2022-09-07T00:29:52.143Z,19.74
2022-09-07T00:30:53.768Z,19.90
2022-09-07T00:31:55.720Z,19.88
2022-09-07T00:32:58.551Z,19.85
2022-09-07T00:34:01.876Z,19.83
2022-09-07T00:35:04.643Z,19.81
2022-09-07T00:36:06.420Z,19.71
2022-09-07T00:37:08.319Z,19.73
2022-09-07T00:38:09.908Z,19.71
2022-09-07T00:39:11.531Z,19.69
2022-09-07T00:40:13.649Z,19.63
2022-09-07T00:41:16.867Z,19.59
2022-09-07T00:42:20.265Z,19.60
2022-09-07T00:43:33.486Z,19.57
2022-09-07T00:44:57.604Z,19.58
2022-09-07T00:46:00.409Z,19.55
2022-09-07T00:47:02.083Z,19.48
2022-09-07T00:48:15.246Z,19.56
2022-09-07T00:49:21.885Z,19.80
2022-09-07T00:50:29.873Z,20.05
2022-09-07T00:51:55.744Z,20.31
2022-09-07T00:53:07.267Z,20.47
2022-09-07T00:54:12.801Z,20.46
2022-09-07T00:55:16.428Z,20.36
2022-09-07T00:56:18.071Z,20.42
2022-09-07T00:57:20.132Z,20.34
2022-09-07T00:58:22.732Z,20.20
2022-09-07T00:59:32.391Z,20.25
2022-09-07T01:00:34.803Z,20.05
2022-09-07T01:01:39.181Z,20.01
2022-09-07T01:02:41.813Z,20.05
2022-09-07T01:03:49.934Z,20.04
2022-09-07T01:04:57.160Z,19.99
2022-09-07T01:06:27.070Z,19.95
2022-09-07T01:07:28.665Z,19.73
2022-09-07T01:08:30.606Z,19.82
2022-09-07T01:09:33.392Z,19.81
2022-09-07T01:10:36.288Z,19.79
2022-09-07T01:11:38.931Z,19.83
2022-09-07T01:12:40.851Z,19.78
2022-09-07T01:13:45.143Z,19.60
2022-09-07T01:14:53.493Z,19.76
2022-09-07T01:16:28.959Z,19.70
2022-09-07T01:17:33.559Z,19.66
2022-09-07T01:18:53.450Z,19.57
2022-09-07T01:20:23.066Z,19.57
2022-09-07T01:21:36.116Z,19.45
2022-09-07T01:22:59.587Z,19.45
2022-09-07T01:24:10.947Z,19.37
2022-09-07T01:25:28.900Z,19.34
2022-09-07T01:26:58.155Z,19.30
2022-09-07T01:28:24.602Z,19.22
2022-09-07T01:29:32.250Z,19.33
2022-09-07T01:30:37.504Z,19.33
2022-09-07T01:31:53.070Z,19.33
2022-09-07T01:33:29.911Z,19.43
2022-09-07T01:34:32.317Z,19.45
2022-09-07T01:35:40.180Z,19.48
2022-09-07T01:36:56.870Z,19.52
2022-09-07T01:38:22.987Z,19.57
2022-09-07T01:39:32.336Z,19.57
2022-09-07T01:40:43.982Z,19.68
2022-09-07T01:42:08.726Z,19.68
2022-09-07T01:43:23.584Z,19.77
2022-09-07T01:44:34.306Z,19.81
2022-09-07T01:45:40.283Z,19.85
2022-09-07T01:47:01.474Z,19.91
2022-09-07T01:48:08.674Z,19.75
2022-09-07T01:49:14.585Z,19.93
2022-09-07T01:50:28.475Z,19.97
2022-09-07T01:51:34.757Z,19.79
2022-09-07T01:52:40.421Z,19.69
2022-09-07T01:53:54.045Z,19.37
2022-09-07T01:55:03.561Z,19.09
2022-09-07T01:56:07.401Z,18.93
2022-09-07T01:57:15.919Z,18.82
2022-09-07T01:58:23.814Z,18.69
2022-09-07T01:59:39.463Z,18.62
2022-09-07T02:00:46.187Z,18.53
2022-09-07T02:01:54.701Z,18.49
2022-09-07T02:03:05.358Z,18.35
2022-09-07T02:04:21.990Z,18.39
2022-09-07T02:05:26.911Z,18.37
2022-09-07T02:06:48.796Z,18.32
2022-09-07T02:07:59.376Z,18.24
2022-09-07T02:09:22.766Z,18.21
2022-09-07T02:10:28.524Z,18.10
2022-09-07T02:11:43.962Z,18.16
2022-09-07T02:12:56.890Z,18.07
2022-09-07T02:14:04.310Z,18.13
2022-09-07T02:15:14.756Z,18.05
2022-09-07T02:16:37.340Z,17.99
2022-09-07T02:17:45.944Z,17.80
2022-09-07T02:18:52.973Z,18.02
2022-09-07T02:20:00.078Z,17.93
2022-09-07T02:21:05.723Z,17.84
2022-09-07T02:22:12.394Z,17.92
2022-09-07T02:23:23.527Z,17.86
2022-09-07T02:24:31.323Z,17.95
2022-09-07T02:25:39.108Z,17.90
2022-09-07T02:26:42.103Z,17.82
2022-09-07T02:27:51.767Z,17.96
2022-09-07T02:28:53.449Z,17.92
2022-09-07T02:29:58.154Z,17.96
2022-09-07T02:31:00.815Z,17.93
2022-09-07T02:32:03.307Z,17.82
2022-09-07T02:33:05.871Z,17.87
2022-09-07T02:34:08.378Z,17.83
2022-09-07T02:35:10.351Z,17.89
2022-09-07T02:36:14.985Z,17.86
2022-09-07T02:37:19.255Z,17.71
2022-09-07T02:38:21.271Z,17.80
2022-09-07T02:39:22.856Z,17.66
2022-09-07T02:40:24.615Z,17.66
2022-09-07T02:41:41.837Z,17.72
2022-09-07T02:42:45.610Z,17.57
2022-09-07T02:43:47.212Z,17.71
2022-09-07T02:44:49.367Z,17.64
2022-09-07T02:46:17.655Z,17.71
2022-09-07T02:47:26.733Z,17.64
2022-09-07T02:48:57.596Z,17.70
2022-09-07T02:50:26.810Z,17.73
2022-09-07T02:51:37.349Z,17.71
2022-09-07T02:53:01.280Z,17.68
2022-09-07T02:54:24.745Z,17.67
2022-09-07T02:55:27.105Z,17.70
2022-09-07T02:56:47.435Z,17.70
2022-09-07T02:58:08.243Z,17.69
2022-09-07T02:59:25.073Z,17.80
2022-09-07T03:00:36.206Z,17.75
2022-09-07T03:01:57.074Z,17.69
2022-09-07T03:03:38.545Z,17.90
2022-09-07T03:04:47.533Z,17.86
2022-09-07T03:05:50.858Z,17.96
2022-09-07T03:07:03.780Z,17.89
2022-09-07T03:08:11.745Z,18.00
2022-09-07T03:09:22.366Z,17.97
2022-09-07T03:10:24.509Z,17.83
2022-09-07T03:11:26.747Z,17.83
2022-09-07T03:12:45.152Z,17.89
2022-09-07T03:13:47.092Z,17.82
2022-09-07T03:14:48.754Z,17.94
2022-09-07T03:15:55.694Z,17.61
2022-09-07T03:16:58.036Z,17.71
2022-09-07T03:17:59.889Z,17.81
2022-09-07T03:19:01.787Z,17.77
2022-09-07T03:20:04.253Z,17.82
2022-09-07T03:21:06.493Z,17.78
2022-09-07T03:22:08.770Z,17.67
2022-09-07T03:23:11.377Z,17.74
2022-09-07T03:24:13.434Z,17.71
2022-09-07T03:25:15.825Z,17.68
2022-09-07T03:26:24.233Z,17.54
2022-09-07T03:27:26.586Z,17.26
2022-09-07T03:28:29.228Z,17.61
2022-09-07T03:29:31.101Z,17.54
2022-09-07T03:30:34.470Z,17.50
2022-09-07T03:31:37.204Z,17.64
2022-09-07T03:32:40.797Z,17.63
2022-09-07T03:33:42.445Z,17.53
2022-09-07T03:34:44.771Z,17.56
2022-09-07T03:35:56.602Z,17.56
2022-09-07T03:36:58.155Z,17.56
2022-09-07T03:37:59.840Z,17.53
2022-09-07T03:39:01.626Z,17.51
2022-09-07T03:40:08.129Z,17.45
2022-09-07T03:41:11.210Z,17.41
2022-09-07T03:42:12.921Z,17.23
2022-09-07T03:43:14.960Z,17.39
2022-09-07T03:44:16.607Z,17.37
2022-09-07T03:45:18.714Z,17.38
2022-09-07T03:46:21.281Z,17.36
2022-09-07T03:47:24.476Z,17.12
2022-09-07T03:48:30.551Z,17.25
2022-09-07T03:49:32.242Z,17.31
2022-09-07T03:50:35.176Z,17.11
2022-09-07T03:51:37.335Z,17.02
2022-09-07T03:52:39.317Z,17.24
2022-09-07T03:53:43.873Z,17.24
2022-09-07T03:54:45.838Z,17.18
2022-09-07T03:56:00.694Z,17.20
2022-09-07T03:57:05.223Z,17.09
2022-09-07T03:58:06.916Z,16.83
2022-09-07T03:59:08.811Z,16.60
2022-09-07T04:00:11.317Z,17.23
2022-09-07T04:01:16.192Z,17.25
2022-09-07T04:02:18.170Z,17.23
2022-09-07T04:03:21.422Z,17.11
2022-09-07T04:04:26.372Z,16.53
2022-09-07T04:05:28.305Z,17.24
2022-09-07T04:06:31.857Z,17.22
2022-09-07T04:07:33.511Z,16.21
2022-09-07T04:08:36.652Z,17.15
2022-09-07T04:09:38.772Z,17.18
2022-09-07T04:10:41.798Z,16.61
2022-09-07T04:11:45.937Z,16.50
2022-09-07T04:12:47.776Z,16.74
2022-09-07T04:13:52.082Z,16.63
2022-09-07T04:14:53.752Z,17.05
2022-09-07T04:15:56.368Z,17.13
2022-09-07T04:16:58.477Z,17.03
2022-09-07T04:18:01.386Z,16.91
2022-09-07T04:19:03.940Z,16.66
2022-09-07T04:20:06.632Z,17.01
2022-09-07T04:21:08.853Z,17.09
2022-09-07T04:22:10.652Z,17.09
2022-09-07T04:23:13.374Z,16.91
2022-09-07T04:24:16.665Z,16.57
2022-09-07T04:25:20.317Z,17.00
2022-09-07T04:26:27.959Z,17.10
2022-09-07T04:27:32.798Z,16.93
2022-09-07T04:28:35.156Z,16.82
2022-09-07T04:29:37.144Z,16.55
2022-09-07T04:30:39.638Z,17.02
2022-09-07T04:31:42.210Z,17.01
2022-09-07T04:32:46.624Z,16.77
2022-09-07T04:33:49.899Z,16.50
2022-09-07T04:34:53.876Z,16.62
2022-09-07T04:35:56.875Z,16.89
2022-09-07T04:36:58.548Z,16.48
2022-09-07T04:38:00.605Z,16.84
2022-09-07T04:39:05.040Z,16.96
2022-09-07T04:40:07.533Z,16.93
2022-09-07T04:41:14.784Z,16.70
2022-09-07T04:42:16.673Z,16.63
2022-09-07T04:43:18.658Z,16.84
2022-09-07T04:44:20.654Z,16.39
2022-09-07T04:45:22.360Z,16.36
2022-09-07T04:46:35.486Z,16.73
2022-09-07T04:47:38.760Z,16.71
2022-09-07T04:48:40.577Z,16.14
2022-09-07T04:49:43.585Z,16.62
2022-09-07T04:50:45.533Z,16.69
2022-09-07T04:51:52.849Z,16.43
2022-09-07T04:52:54.630Z,16.73
2022-09-07T04:54:00.507Z,16.74
2022-09-07T04:55:05.298Z,16.44
2022-09-07T04:56:07.329Z,16.62
2022-09-07T04:57:11.214Z,16.50
2022-09-07T04:58:13.671Z,16.76
2022-09-07T04:59:17.514Z,16.78
2022-09-07T05:00:19.722Z,16.47
2022-09-07T05:01:26.784Z,16.33
2022-09-07T05:02:28.595Z,16.74
2022-09-07T05:03:32.348Z,16.64
2022-09-07T05:04:37.265Z,16.31
2022-09-07T05:05:39.302Z,16.21
2022-09-07T05:06:40.973Z,16.38
2022-09-07T05:07:42.800Z,16.71
2022-09-07T05:08:48.046Z,16.38
2022-09-07T05:09:52.341Z,16.39
2022-09-07T05:10:56.040Z,16.70
2022-09-07T05:11:58.116Z,16.92
2022-09-07T05:13:00.682Z,16.91
2022-09-07T05:14:03.766Z,16.39
2022-09-07T05:15:06.429Z,16.93
2022-09-07T05:16:12.670Z,16.49
2022-09-07T05:17:15.003Z,16.91
2022-09-07T05:18:16.727Z,17.13
2022-09-07T05:19:18.792Z,16.95
2022-09-07T05:20:21.689Z,17.24
2022-09-07T05:21:26.674Z,17.08
2022-09-07T05:22:28.395Z,16.77
2022-09-07T05:23:30.509Z,16.75
2022-09-07T05:24:34.626Z,17.25
2022-09-07T05:25:43.442Z,17.34
2022-09-07T05:26:46.068Z,17.23
2022-09-07T05:27:50.388Z,17.22
2022-09-07T05:28:52.462Z,16.55
2022-09-07T05:30:03.466Z,17.30
2022-09-07T05:31:19.758Z,17.21
2022-09-07T05:32:21.876Z,17.20
2022-09-07T05:34:47.567Z,16.96
2022-09-07T05:36:00.414Z,17.23
2022-09-07T05:37:04.193Z,17.27
2022-09-07T05:38:05.813Z,17.05
2022-09-07T05:39:08.602Z,17.27
2022-09-07T05:40:11.788Z,16.88
2022-09-07T05:41:15.760Z,17.27
2022-09-07T05:42:18.162Z,16.62
2022-09-07T05:43:21.374Z,17.26
2022-09-07T05:45:46.237Z,17.30
2022-09-07T05:46:49.927Z,17.26
2022-09-07T05:47:51.695Z,17.29
2022-09-07T05:48:53.612Z,17.06
2022-09-07T05:49:57.178Z,17.36
2022-09-07T05:51:00.561Z,17.53
2022-09-07T05:52:02.460Z,16.88
2022-09-07T05:53:04.361Z,17.26
2022-09-07T05:54:06.133Z,16.91
2022-09-07T05:55:28.890Z,17.60
2022-09-07T05:56:30.304Z,17.64
2022-09-07T05:57:33.651Z,17.24
2022-09-07T05:58:36.775Z,17.68
2022-09-07T05:59:38.573Z,17.59
2022-09-07T06:00:40.519Z,17.59
2022-09-07T06:01:42.412Z,17.97
2022-09-07T06:02:44.435Z,17.58
2022-09-07T06:03:46.389Z,17.45
2022-09-07T06:04:48.869Z,17.84
2022-09-07T06:06:01.887Z,17.93
2022-09-07T06:07:20.999Z,18.19
2022-09-07T06:08:24.182Z,18.32
2022-09-07T06:09:30.227Z,18.38
2022-09-07T06:11:42.854Z,18.87
2022-09-07T06:12:49.198Z,18.81
2022-09-07T06:13:55.575Z,18.78
2022-09-07T06:14:57.822Z,18.68
2022-09-07T06:16:04.911Z,19.24
2022-09-07T06:17:06.647Z,18.89
2022-09-07T06:18:08.661Z,19.60
2022-09-07T06:19:11.017Z,19.92
2022-09-07T06:20:12.982Z,20.35
2022-09-07T06:21:20.753Z,20.78
2022-09-07T06:22:22.814Z,20.30
2022-09-07T06:23:24.687Z,21.38
2022-09-07T06:24:26.338Z,22.07
2022-09-07T06:25:28.131Z,21.66
2022-09-07T06:26:29.977Z,22.04
2022-09-07T06:27:31.730Z,22.83
2022-09-07T06:28:38.635Z,23.04
2022-09-07T06:29:40.576Z,23.32
2022-09-07T06:30:42.197Z,23.34
2022-09-07T06:33:05.755Z,24.38
2022-09-07T06:34:07.627Z,24.51
2022-09-07T06:35:10.061Z,24.29
2022-09-07T06:36:13.783Z,23.92
2022-09-07T06:37:16.066Z,23.36
2022-09-07T06:38:17.932Z,23.22
2022-09-07T06:39:19.726Z,23.04
2022-09-07T06:40:23.087Z,22.87
2022-09-07T06:42:50.727Z,21.58
2022-09-07T06:43:55.168Z,21.59
2022-09-07T06:44:56.868Z,21.01
2022-09-07T06:47:21.282Z,20.89
2022-09-07T06:48:23.288Z,20.88
2022-09-07T06:49:26.074Z,21.14
2022-09-07T06:50:28.167Z,21.12
2022-09-07T06:51:30.876Z,20.82
2022-09-07T06:55:19.886Z,20.59
2022-09-07T06:56:21.652Z,20.25
2022-09-07T06:57:23.790Z,20.32
2022-09-07T06:58:27.080Z,20.09
2022-09-07T06:59:29.051Z,20.01
2022-09-07T07:00:31.045Z,20.06
2022-09-07T07:01:33.965Z,20.20
2022-09-07T07:02:35.609Z,20.35
2022-09-07T07:03:38.048Z,20.16
2022-09-07T07:04:41.343Z,20.40
2022-09-07T07:05:59.646Z,20.26
2022-09-07T07:07:01.352Z,20.99
2022-09-07T07:08:05.019Z,21.90
2022-09-07T07:09:12.315Z,22.45
2022-09-07T07:10:14.179Z,22.60
2022-09-07T07:11:17.221Z,22.97
2022-09-07T07:14:21.547Z,23.41
2022-09-07T07:15:26.651Z,23.30
2022-09-07T07:16:28.465Z,24.22
2022-09-07T07:17:30.319Z,24.49
2022-09-07T07:18:33.230Z,25.05
2022-09-07T07:19:35.096Z,24.72
2022-09-07T07:20:38.881Z,25.04
2022-09-07T07:22:03.408Z,25.37
2022-09-07T07:23:03.406Z,25.94
2022-09-07T07:24:08.187Z,26.68
2022-09-07T07:25:10.189Z,26.86
2022-09-07T07:26:18.508Z,27.54
2022-09-07T07:27:21.694Z,27.10
2022-09-07T07:29:47.886Z,26.92
2022-09-07T07:30:56.388Z,26.95
2022-09-07T07:31:58.429Z,26.67
2022-09-07T07:33:00.204Z,26.45
2022-09-07T07:34:03.737Z,26.63
2022-09-07T07:35:07.822Z,25.89
2022-09-07T07:36:14.346Z,25.41
2022-09-07T07:37:16.190Z,24.96
2022-09-07T07:42:26.798Z,26.64
2022-09-07T07:43:28.451Z,27.80
2022-09-07T07:44:30.556Z,28.72
2022-09-07T07:46:54.945Z,30.62
2022-09-07T07:47:56.979Z,31.20
2022-09-07T07:49:01.069Z,31.67
2022-09-07T07:51:26.376Z,32.89
2022-09-07T07:54:01.126Z,33.71
2022-09-07T07:55:43.011Z,33.19
2022-09-07T07:56:25.898Z,32.45
2022-09-07T07:57:29.113Z,33.55
2022-09-07T07:58:33.124Z,33.72
2022-09-07T07:59:35.484Z,33.70
2022-09-07T08:00:53.020Z,33.79
2022-09-07T08:01:55.266Z,34.03
2022-09-07T08:02:57.659Z,33.30
2022-09-07T08:03:59.233Z,33.05
2022-09-07T08:05:01.680Z,33.59
2022-09-07T08:06:11.211Z,33.79
2022-09-07T08:07:13.369Z,33.60
2022-09-07T08:08:15.587Z,33.73
2022-09-07T08:09:17.364Z,34.04
2022-09-07T08:10:19.564Z,33.91
2022-09-07T08:11:22.710Z,33.62
2022-09-07T08:12:29.575Z,33.31
2022-09-07T08:13:33.802Z,34.29
2022-09-07T08:14:42.009Z,34.62
2022-09-07T08:15:47.174Z,36.04
2022-09-07T08:16:49.224Z,35.78
2022-09-07T08:17:51.198Z,36.29
2022-09-07T08:18:53.778Z,36.57
2022-09-07T08:19:56.156Z,35.97
2022-09-07T08:21:11.892Z,35.32
2022-09-07T08:22:13.844Z,35.35
2022-09-07T08:23:15.818Z,35.44
2022-09-07T08:24:19.268Z,35.93
2022-09-07T08:25:21.343Z,35.66
2022-09-07T08:26:24.702Z,35.17
2022-09-07T08:27:26.790Z,34.66
2022-09-07T08:28:30.724Z,35.13
2022-09-07T08:29:34.539Z,34.92
2022-09-07T08:30:39.792Z,32.80
2022-09-07T08:31:41.419Z,33.23
2022-09-07T08:32:43.355Z,33.74
2022-09-07T08:33:45.252Z,33.48
2022-09-07T08:34:46.785Z,33.32
2022-09-07T08:35:56.707Z,33.63
2022-09-07T08:36:58.747Z,32.68
2022-09-07T08:38:00.591Z,31.82
2022-09-07T08:39:02.905Z,31.92
2022-09-07T08:40:04.935Z,32.45
2022-09-07T08:41:28.951Z,32.50
2022-09-07T08:43:13.402Z,32.45
2022-09-07T08:44:34.171Z,32.22
2022-09-07T08:45:49.118Z,32.08
2022-09-07T08:47:00.689Z,32.23
2022-09-07T08:48:05.406Z,32.65
2022-09-07T08:49:27.796Z,32.55
2022-09-07T08:50:53.230Z,31.27
2022-09-07T08:52:03.096Z,31.21
2022-09-07T08:53:12.968Z,31.74
2022-09-07T08:54:17.167Z,31.84
2022-09-07T08:55:33.609Z,31.44
2022-09-07T08:56:39.729Z,31.59
2022-09-07T08:57:46.271Z,31.64
2022-09-07T08:58:54.308Z,32.74
2022-09-07T09:00:14.193Z,32.55
2022-09-07T09:01:34.575Z,32.04
2022-09-07T09:02:43.521Z,31.53
2022-09-07T09:05:36.633Z,33.55
2022-09-07T09:06:59.190Z,34.03
2022-09-07T09:08:14.476Z,33.49
2022-09-07T09:09:35.852Z,34.63
2022-09-07T09:10:49.610Z,35.24
2022-09-07T09:12:11.835Z,35.35
2022-09-07T09:13:19.880Z,33.81
2022-09-07T09:14:46.569Z,33.80
2022-09-07T09:16:14.897Z,33.53
2022-09-07T09:17:44.683Z,33.52
2022-09-07T09:19:19.489Z,34.21
2022-09-07T09:20:41.753Z,33.49
2022-09-07T09:21:43.646Z,32.93
2022-09-07T09:22:45.861Z,32.89
2022-09-07T09:23:51.447Z,32.33
2022-09-07T09:25:01.544Z,32.96
2022-09-07T09:26:24.921Z,33.57
2022-09-07T09:27:27.935Z,34.06
2022-09-07T09:28:31.854Z,34.10
2022-09-07T09:29:34.635Z,33.66
2022-09-07T09:30:36.914Z,33.87
2022-09-07T09:31:38.782Z,33.55
2022-09-07T09:32:43.980Z,34.31
2022-09-07T09:34:05.632Z,33.83
2022-09-07T09:35:25.705Z,32.89
2022-09-07T09:36:34.582Z,33.05
2022-09-07T09:37:38.746Z,33.23
2022-09-07T09:38:40.973Z,32.90
2022-09-07T09:39:45.207Z,32.56
2022-09-07T09:40:52.594Z,32.45
2022-09-07T09:41:56.694Z,32.70
2022-09-07T09:43:25.496Z,33.81
2022-09-07T09:44:37.794Z,34.58
2022-09-07T09:47:34.045Z,36.41
2022-09-07T09:48:40.672Z,36.52
2022-09-07T09:49:45.450Z,37.22
2022-09-07T09:52:30.494Z,38.47
2022-09-07T09:53:49.922Z,38.47
2022-09-07T09:54:53.887Z,36.98
2022-09-07T09:55:56.607Z,36.25
2022-09-07T09:56:58.538Z,36.52
2022-09-07T10:05:01.276Z,36.64
2022-09-07T10:06:09.153Z,35.80
2022-09-07T10:07:26.576Z,34.90
2022-09-07T10:08:32.975Z,36.70
2022-09-07T10:09:50.055Z,37.47
2022-09-07T10:10:59.545Z,36.90
2022-09-07T10:12:07.098Z,36.95
2022-09-07T10:13:21.551Z,36.70
2022-09-07T10:14:32.390Z,36.98
2022-09-07T10:15:41.312Z,37.86
2022-09-07T10:16:44.392Z,38.34
2022-09-07T10:17:49.772Z,38.64
2022-09-07T10:18:55.540Z,38.66
2022-09-07T10:20:24.182Z,38.73
2022-09-07T10:21:31.693Z,38.01
2022-09-07T10:22:38.989Z,37.88
2022-09-07T10:23:48.022Z,36.92
2022-09-07T10:24:51.787Z,37.42
2022-09-07T10:25:55.977Z,37.45
2022-09-07T10:26:57.979Z,36.77
2022-09-07T10:28:10.293Z,37.32
2022-09-07T10:29:31.574Z,38.10
2022-09-07T10:30:58.731Z,37.88
2022-09-07T10:32:25.264Z,36.79
2022-09-07T10:35:25.716Z,38.32
2022-09-07T10:36:36.189Z,38.17
2022-09-07T10:38:16.854Z,37.30
2022-09-07T10:39:34.350Z,36.73
2022-09-07T10:40:43.022Z,35.73
2022-09-07T10:42:14.460Z,34.17
2022-09-07T10:43:37.487Z,33.94
2022-09-07T10:45:15.999Z,33.99
2022-09-07T10:48:15.957Z,35.28
2022-09-07T10:49:20.705Z,35.35
2022-09-07T10:50:40.435Z,34.96
2022-09-07T10:52:02.933Z,35.02
2022-09-07T10:53:39.530Z,36.21
2022-09-07T10:54:55.545Z,36.44
2022-09-07T10:56:35.632Z,37.18
2022-09-07T10:57:48.217Z,37.14
2022-09-07T10:59:18.631Z,37.22
2022-09-07T11:00:21.947Z,38.07
2022-09-07T11:01:51.424Z,39.21
2022-09-07T11:04:29.353Z,38.13
2022-09-07T11:05:52.059Z,36.51
2022-09-07T11:07:15.598Z,36.46
2022-09-07T11:09:15.723Z,37.84
2022-09-07T11:10:01.575Z,37.97
2022-09-07T11:11:17.367Z,38.26
2022-09-07T11:12:27.910Z,37.63
2022-09-07T11:13:40.986Z,38.12
2022-09-07T11:15:35.424Z,38.13
2022-09-07T11:16:51.019Z,38.65
2022-09-07T11:17:58.516Z,37.64
2022-09-07T11:20:37.929Z,38.71
2022-09-07T11:21:58.966Z,37.17
2022-09-07T11:23:23.300Z,37.57
2022-09-07T11:24:34.476Z,36.79
2022-09-07T11:25:46.710Z,36.72
2022-09-07T11:26:54.202Z,34.36
2022-09-07T11:28:18.245Z,34.35
2022-09-07T11:29:33.446Z,33.43
2022-09-07T11:30:40.599Z,33.18
2022-09-07T11:31:46.573Z,32.73
2022-09-07T11:33:35.451Z,32.50
2022-09-07T11:34:45.221Z,31.93
2022-09-07T11:36:12.501Z,32.28
2022-09-07T11:37:23.595Z,33.44
2022-09-07T11:38:34.883Z,33.87
2022-09-07T11:39:44.191Z,34.35
2022-09-07T11:40:53.355Z,35.21
2022-09-07T11:42:42.574Z,35.54
2022-09-07T11:43:35.864Z,34.14
2022-09-07T11:44:57.351Z,35.70
2022-09-07T11:46:16.768Z,36.73
2022-09-07T11:47:29.548Z,37.72
2022-09-07T11:48:50.383Z,38.08
2022-09-07T11:49:59.182Z,37.91
2022-09-07T11:51:10.646Z,37.06
2022-09-07T11:52:41.015Z,37.22
2022-09-07T11:54:01.339Z,38.16
2022-09-07T11:55:08.118Z,38.20
2022-09-07T11:56:36.778Z,38.44
2022-09-07T11:57:38.641Z,39.51
2022-09-07T11:59:00.818Z,40.31
2022-09-07T12:00:06.888Z,40.72
2022-09-07T12:01:11.639Z,40.80
2022-09-07T12:02:58.711Z,39.69
2022-09-07T12:04:24.809Z,36.99
2022-09-07T12:05:54.662Z,35.76
2022-09-07T12:07:21.521Z,35.15
2022-09-07T12:09:04.528Z,34.81
2022-09-07T12:10:39.170Z,34.29
2022-09-07T12:11:50.022Z,33.52
2022-09-07T12:13:27.787Z,34.03
2022-09-07T12:14:38.787Z,35.00
2022-09-07T12:16:09.317Z,35.79
2022-09-07T12:17:24.053Z,35.58
2022-09-07T12:19:05.319Z,35.45
2022-09-07T12:20:13.048Z,35.55
2022-09-07T12:21:40.414Z,34.98
2022-09-07T12:23:17.346Z,34.60
2022-09-07T12:24:41.389Z,33.91
2022-09-07T12:25:47.870Z,33.51
2022-09-07T12:26:50.819Z,32.89
2022-09-07T12:27:54.056Z,33.48
2022-09-07T12:28:56.138Z,32.90
2022-09-07T12:29:57.980Z,31.75
2022-09-07T12:31:04.990Z,31.82
2022-09-07T12:33:38.992Z,33.45
2022-09-07T12:34:52.525Z,33.32
2022-09-07T12:35:58.170Z,33.63
2022-09-07T12:37:00.751Z,34.35
2022-09-07T12:38:26.068Z,35.11
2022-09-07T12:39:33.118Z,35.30
2022-09-07T12:40:35.170Z,36.23
2022-09-07T12:41:47.376Z,36.44
2022-09-07T12:42:49.488Z,37.01
2022-09-07T12:43:51.245Z,37.34
2022-09-07T12:45:29.565Z,36.83
2022-09-07T12:46:35.117Z,36.16
2022-09-07T12:47:37.250Z,35.17
2022-09-07T12:48:47.769Z,35.13
2022-09-07T12:50:06.511Z,34.98
2022-09-07T12:52:51.671Z,34.79
2022-09-07T12:54:14.978Z,35.02
2022-09-07T12:57:38.195Z,34.12
2022-09-07T12:58:51.031Z,34.68
2022-09-07T13:00:11.083Z,35.28
2022-09-07T13:01:22.255Z,36.02
2022-09-07T13:02:42.874Z,36.39
2022-09-07T13:04:09.169Z,35.33
2022-09-07T13:05:42.790Z,35.27
2022-09-07T13:07:26.073Z,35.01
2022-09-07T13:08:52.258Z,35.18
2022-09-07T13:09:59.855Z,34.75
2022-09-07T13:11:20.266Z,34.79
2022-09-07T13:12:56.725Z,34.15
2022-09-07T13:14:08.913Z,33.71
2022-09-07T13:15:48.757Z,33.69
2022-09-07T13:17:30.320Z,33.69
2022-09-07T13:18:39.698Z,33.31
2022-09-07T13:20:18.290Z,32.70
2022-09-07T13:21:38.910Z,32.38
2022-09-07T13:22:41.970Z,32.35
2022-09-07T13:25:28.619Z,32.07
2022-09-07T13:27:24.111Z,31.90
2022-09-07T13:28:37.252Z,31.82
2022-09-07T13:29:50.870Z,31.93
2022-09-07T13:31:11.509Z,31.85
2022-09-07T13:33:57.113Z,31.81
2022-09-07T13:35:04.834Z,31.56
2022-09-07T13:36:22.241Z,31.08
2022-09-07T13:37:26.553Z,30.92
2022-09-07T13:38:30.371Z,31.28
2022-09-07T13:39:44.908Z,30.98
2022-09-07T13:40:49.302Z,31.42
2022-09-07T13:41:55.596Z,31.14
2022-09-07T13:42:59.677Z,31.43
2022-09-07T13:44:04.140Z,31.52
2022-09-07T13:45:34.481Z,32.38
2022-09-07T13:47:15.267Z,32.70
2022-09-07T13:48:42.541Z,32.55
2022-09-07T13:49:55.705Z,32.06
2022-09-07T13:51:15.735Z,31.97
2022-09-07T13:52:22.630Z,31.85
2022-09-07T13:53:52.991Z,30.16
2022-09-07T13:55:08.260Z,29.76
2022-09-07T13:56:31.244Z,29.23
2022-09-07T13:58:01.111Z,29.00
2022-09-07T13:59:18.898Z,29.31
2022-09-07T14:00:20.624Z,29.17
2022-09-07T14:01:27.935Z,29.20
2022-09-07T14:02:34.169Z,29.25
2022-09-07T14:04:02.392Z,29.32
2022-09-07T14:05:06.605Z,29.22
2022-09-07T14:06:20.857Z,29.22
2022-09-07T14:07:25.126Z,29.25
2022-09-07T14:08:28.894Z,28.73
2022-09-07T14:09:30.608Z,28.40
2022-09-07T14:10:32.206Z,28.75
2022-09-07T14:11:46.639Z,28.57
2022-09-07T14:13:05.238Z,28.45
2022-09-07T14:14:12.734Z,28.77
2022-09-07T14:15:21.674Z,28.77
2022-09-07T14:16:23.286Z,28.65
2022-09-07T14:17:25.167Z,28.48
2022-09-07T14:18:31.813Z,28.54
2022-09-07T14:19:39.973Z,28.66
2022-09-07T14:20:53.583Z,28.56
2022-09-07T14:22:19.756Z,28.38
2022-09-07T14:23:30.790Z,28.33
2022-09-07T14:24:40.234Z,28.31
2022-09-07T14:27:07.090Z,27.93
2022-09-07T14:28:29.094Z,27.58
2022-09-07T14:29:33.900Z,27.77
2022-09-07T14:30:36.663Z,27.84
2022-09-07T14:31:38.325Z,27.89
2022-09-07T14:32:41.432Z,28.01
2022-09-07T14:33:57.222Z,28.11
2022-09-07T14:34:59.478Z,28.00
2022-09-07T14:36:13.264Z,27.86
2022-09-07T14:37:24.113Z,28.33
2022-09-07T14:39:56.676Z,28.79
2022-09-07T14:41:01.606Z,29.15
2022-09-07T14:42:04.331Z,29.70
2022-09-07T14:43:26.715Z,30.08
2022-09-07T14:44:40.545Z,30.55
2022-09-07T14:45:42.342Z,31.03
2022-09-07T14:46:50.599Z,31.37
2022-09-07T14:47:56.517Z,31.67
2022-09-07T14:49:05.032Z,32.10
2022-09-07T14:50:17.064Z,32.36
2022-09-07T14:51:32.721Z,32.69
2022-09-07T14:53:33.318Z,32.93
2022-09-07T14:54:06.152Z,32.74
2022-09-07T14:55:25.920Z,32.52
2022-09-07T14:56:37.673Z,32.36
2022-09-07T14:57:39.452Z,32.18
2022-09-07T14:58:41.444Z,31.83
2022-09-07T14:59:47.088Z,31.80
2022-09-07T15:01:37.343Z,31.72
2022-09-07T15:02:20.995Z,31.24
2022-09-07T15:03:25.872Z,30.76
2022-09-07T15:04:28.457Z,29.95
2022-09-07T15:05:34.595Z,29.41
2022-09-07T15:07:02.354Z,29.20
2022-09-07T15:08:04.904Z,29.40
2022-09-07T15:09:25.490Z,29.63
2022-09-07T15:10:28.987Z,29.61
2022-09-07T15:11:36.501Z,29.66
2022-09-07T15:12:42.608Z,29.67
2022-09-07T15:13:53.553Z,29.67
2022-09-07T15:14:55.404Z,29.53
2022-09-07T15:16:19.125Z,29.52
2022-09-07T15:17:46.656Z,29.79
2022-09-07T15:18:52.617Z,29.86
2022-09-07T15:19:54.186Z,29.85
2022-09-07T15:20:56.107Z,29.84
2022-09-07T15:21:57.714Z,29.55
2022-09-07T15:22:59.560Z,29.12
2022-09-07T15:24:01.847Z,28.48
2022-09-07T15:25:05.576Z,28.46
2022-09-07T15:27:01.894Z,28.39
2022-09-07T15:27:32.754Z,28.45
2022-09-07T15:29:57.193Z,28.63
2022-09-07T15:32:20.488Z,28.58
2022-09-07T15:33:22.807Z,28.55
2022-09-07T15:34:24.629Z,28.62
2022-09-07T15:35:26.856Z,28.49
2022-09-07T15:36:31.873Z,28.44
2022-09-07T15:39:03.391Z,28.28
2022-09-07T15:40:29.049Z,27.97
2022-09-07T15:41:30.872Z,27.85
2022-09-07T15:43:56.617Z,27.26
2022-09-07T15:44:59.219Z,27.32
2022-09-07T15:46:03.549Z,27.02
2022-09-07T15:48:27.130Z,27.10
2022-09-07T15:49:29.183Z,27.18